createdAt,value
2018-07-06T00:01:32.088Z,14.13
2018-07-06T00:04:12.067Z,15.23
2018-07-06T00:06:52.057Z,13.90
2018-07-06T00:09:31.942Z,14.93
2018-07-06T00:12:11.811Z,14.07
2018-07-06T00:14:51.783Z,13.70
2018-07-06T00:17:31.533Z,13.80
2018-07-06T00:20:11.467Z,15.20
2018-07-06T00:22:51.228Z,14.70
2018-07-06T00:25:31.208Z,15.10
2018-07-06T00:28:11.031Z,13.73
2018-07-06T00:30:50.895Z,14.53
2018-07-06T00:33:30.810Z,14.50
2018-07-06T00:36:10.572Z,14.07
2018-07-06T00:38:51.512Z,14.67
2018-07-06T00:41:31.237Z,14.57
2018-07-06T00:44:11.274Z,13.63
2018-07-06T00:46:51.051Z,14.73
2018-07-06T00:49:31.058Z,13.50
2018-07-06T00:52:11.058Z,15.40
2018-07-06T00:54:50.760Z,15.47
2018-07-06T00:57:30.326Z,15.53
2018-07-06T01:00:10.136Z,15.40
2018-07-06T01:02:49.794Z,15.80
2018-07-06T01:05:29.682Z,14.50
2018-07-06T01:08:09.464Z,14.00
2018-07-06T01:10:49.291Z,14.00
2018-07-06T01:13:29.188Z,13.53
2018-07-06T01:16:09.130Z,13.83
2018-07-06T01:18:49.006Z,13.97
2018-07-06T01:21:28.827Z,16.00
2018-07-06T01:24:08.670Z,16.50
2018-07-06T01:26:48.457Z,14.80
2018-07-06T01:29:28.378Z,14.13
2018-07-06T01:32:08.279Z,15.83
2018-07-06T01:34:48.085Z,14.47
2018-07-06T01:37:28.068Z,16.93
2018-07-06T01:40:07.973Z,15.33
2018-07-06T01:42:47.961Z,16.30
2018-07-06T01:45:28.147Z,14.10
2018-07-06T01:48:07.763Z,17.30
2018-07-06T01:50:47.503Z,15.03
2018-07-06T01:53:27.451Z,15.70
2018-07-06T01:56:07.242Z,14.20
2018-07-06T01:58:46.930Z,15.30
2018-07-06T02:01:26.671Z,13.37
2018-07-06T02:04:06.598Z,14.17
2018-07-06T02:06:46.345Z,15.10
2018-07-06T02:09:26.114Z,14.70
2018-07-06T02:12:05.799Z,13.27
2018-07-06T02:14:46.787Z,13.13
2018-07-06T02:17:26.744Z,14.07
2018-07-06T02:20:06.568Z,12.40
2018-07-06T02:22:46.282Z,14.63
2018-07-06T02:25:26.284Z,15.27
2018-07-06T02:28:05.988Z,13.50
2018-07-06T02:30:45.883Z,15.20
2018-07-06T02:33:25.486Z,13.60
2018-07-06T02:36:05.217Z,12.90
2018-07-06T02:38:45.040Z,13.80
2018-07-06T02:41:24.818Z,13.20
2018-07-06T02:44:04.626Z,12.80
2018-07-06T02:46:44.366Z,13.30
2018-07-06T02:49:24.230Z,13.40
2018-07-06T02:52:04.095Z,13.00
2018-07-06T02:54:44.111Z,13.00
2018-07-06T02:57:23.928Z,11.93
2018-07-06T03:00:03.737Z,12.90
2018-07-06T03:02:43.610Z,12.27
2018-07-06T03:05:23.634Z,13.90
2018-07-06T03:08:03.416Z,11.57
2018-07-06T03:10:43.144Z,12.53
2018-07-06T03:13:22.946Z,12.30
2018-07-06T03:16:02.848Z,10.10
2018-07-06T03:18:42.694Z,11.10
2018-07-06T03:21:22.683Z,9.87
2018-07-06T03:24:02.527Z,10.00
2018-07-06T03:26:42.316Z,10.20
2018-07-06T03:29:22.067Z,9.87
2018-07-06T03:32:01.871Z,8.90
2018-07-06T03:34:41.715Z,8.50
2018-07-06T03:37:21.546Z,9.73
2018-07-06T03:40:01.323Z,9.27
2018-07-06T03:42:35.135Z,8.20
2018-07-06T03:45:14.903Z,8.10
2018-07-06T03:47:54.762Z,7.93
2018-07-06T03:50:34.612Z,8.23
2018-07-06T03:53:14.609Z,8.40
2018-07-06T03:55:54.331Z,9.20
2018-07-06T03:58:34.016Z,8.40
2018-07-06T04:01:13.882Z,9.23
2018-07-06T04:03:53.773Z,8.50
2018-07-06T04:06:33.686Z,9.20
2018-07-06T04:09:13.544Z,9.70
2018-07-06T04:11:53.425Z,9.53
2018-07-06T04:14:33.298Z,11.30
2018-07-06T04:17:13.192Z,9.90
2018-07-06T04:19:52.874Z,9.87
2018-07-06T04:22:32.823Z,11.20
2018-07-06T04:25:12.529Z,10.50
2018-07-06T04:27:52.360Z,8.67
2018-07-06T04:30:32.373Z,8.80
2018-07-06T04:33:12.363Z,9.30
2018-07-06T04:35:52.089Z,8.00
2018-07-06T04:38:32.021Z,7.80
2018-07-06T04:41:11.681Z,7.93
2018-07-06T04:43:51.568Z,8.53
2018-07-06T04:46:31.218Z,7.40
2018-07-06T04:49:10.969Z,8.50
2018-07-06T04:51:50.653Z,9.00
2018-07-06T04:54:30.322Z,8.23
2018-07-06T04:57:10.051Z,8.47
2018-07-06T04:59:49.891Z,7.80
2018-07-06T05:02:30.835Z,8.10
2018-07-06T05:05:10.484Z,7.93
2018-07-06T05:07:50.285Z,7.87
2018-07-06T05:10:30.194Z,9.00
2018-07-06T05:13:10.079Z,7.57
2018-07-06T05:15:49.874Z,8.33
2018-07-06T05:18:29.683Z,8.23
2018-07-06T05:21:09.562Z,7.43
2018-07-06T05:23:49.514Z,8.03
2018-07-06T05:26:29.361Z,7.30
2018-07-06T05:29:09.166Z,6.97
2018-07-06T05:31:49.131Z,8.40
2018-07-06T05:34:29.130Z,9.00
2018-07-06T05:37:08.780Z,6.80
2018-07-06T05:39:48.717Z,8.40
2018-07-06T05:42:28.710Z,7.87
2018-07-06T05:45:08.568Z,8.50
2018-07-06T05:47:48.269Z,7.63
2018-07-06T05:50:28.138Z,8.00
2018-07-06T05:53:08.048Z,6.90
2018-07-06T05:55:49.173Z,7.30
2018-07-06T05:58:33.428Z,8.20
2018-07-06T06:01:13.137Z,7.63
2018-07-06T06:03:52.834Z,6.90
2018-07-06T06:06:37.281Z,8.70
2018-07-06T06:09:04.958Z,8.23
2018-07-06T06:11:33.558Z,7.77
2018-07-06T06:14:02.131Z,8.00
2018-07-06T06:16:30.759Z,7.23
2018-07-06T06:18:59.253Z,7.63
2018-07-06T06:21:27.901Z,8.07
2018-07-06T06:23:56.524Z,7.53
2018-07-06T06:26:29.198Z,8.13
2018-07-06T06:28:57.807Z,9.03
2018-07-06T06:31:27.103Z,8.37
2018-07-06T06:33:57.066Z,8.53
2018-07-06T06:36:25.858Z,7.50
2018-07-06T06:38:55.601Z,9.43
2018-07-06T06:41:24.267Z,8.27
2018-07-06T06:43:53.050Z,8.07
2018-07-06T06:46:21.752Z,8.80
2018-07-06T06:48:50.391Z,9.30
2018-07-06T06:51:19.050Z,7.70
2018-07-06T06:53:47.744Z,10.00
2018-07-06T06:56:16.396Z,9.43
2018-07-06T06:58:45.187Z,8.30
2018-07-06T07:01:13.417Z,9.33
2018-07-06T07:03:42.067Z,9.60
2018-07-06T07:06:10.634Z,11.37
2018-07-06T07:08:39.387Z,13.10
2018-07-06T07:11:08.036Z,15.37
2018-07-06T07:13:36.810Z,12.67
2018-07-06T07:16:05.452Z,16.10
2018-07-06T07:18:34.223Z,19.90
2018-07-06T07:21:02.919Z,19.07
2018-07-06T07:23:31.645Z,21.40
2018-07-06T07:26:00.350Z,18.23
2018-07-06T07:28:29.060Z,21.67
2018-07-06T07:30:58.795Z,20.40
2018-07-06T07:33:27.495Z,27.90
2018-07-06T07:35:56.416Z,25.93
2018-07-06T07:38:25.082Z,28.57
2018-07-06T07:40:53.349Z,28.97
2018-07-06T07:43:22.099Z,29.97
2018-07-06T07:45:50.713Z,29.67
2018-07-06T07:48:19.423Z,29.43
2018-07-06T07:51:04.284Z,30.00
2018-07-06T07:53:43.950Z,32.17
2018-07-06T07:56:12.639Z,32.60
2018-07-06T07:58:41.228Z,32.03
2018-07-06T08:01:10.018Z,32.30
2018-07-06T08:03:38.949Z,30.97
2018-07-06T08:06:07.568Z,32.63
2018-07-06T08:08:36.312Z,32.27
2018-07-06T08:11:04.953Z,31.67
2018-07-06T08:13:33.641Z,31.93
2018-07-06T08:16:02.331Z,33.90
2018-07-06T08:18:30.972Z,33.03
2018-07-06T08:20:59.603Z,32.13
2018-07-06T08:23:30.264Z,30.97
2018-07-06T08:25:58.906Z,34.17
2018-07-06T08:28:27.569Z,30.90
2018-07-06T08:30:56.262Z,32.77
2018-07-06T08:33:26.510Z,32.33
2018-07-06T08:36:06.215Z,32.87
2018-07-06T08:38:34.855Z,28.83
2018-07-06T08:41:03.538Z,28.40
2018-07-06T08:43:32.192Z,28.00
2018-07-06T08:46:00.804Z,31.30
2018-07-06T08:48:29.511Z,26.87
2018-07-06T08:50:58.181Z,29.23
2018-07-06T08:53:26.837Z,25.17
2018-07-06T08:55:55.434Z,26.90
2018-07-06T08:58:24.270Z,27.70
2018-07-06T09:00:52.841Z,26.50
2018-07-06T09:03:21.412Z,27.13
2018-07-06T09:05:50.026Z,26.87
2018-07-06T09:08:18.653Z,26.83
2018-07-06T09:10:47.194Z,24.70
2018-07-06T09:13:15.775Z,25.43
2018-07-06T09:15:44.374Z,26.97
2018-07-06T09:18:13.037Z,28.13
2018-07-06T09:20:41.706Z,28.37
2018-07-06T09:23:10.362Z,28.03
2018-07-06T09:25:39.044Z,28.20
2018-07-06T09:28:07.835Z,29.37
2018-07-06T09:30:36.424Z,28.80
2018-07-06T09:33:05.090Z,28.50
2018-07-06T09:35:33.737Z,30.13
2018-07-06T09:38:02.544Z,27.20
2018-07-06T09:40:31.171Z,27.23
2018-07-06T09:42:59.793Z,29.00
2018-07-06T09:45:29.548Z,26.50
2018-07-06T09:47:58.199Z,26.70
2018-07-06T09:50:28.765Z,27.33
2018-07-06T09:52:59.065Z,26.20
2018-07-06T09:55:27.675Z,27.67
2018-07-06T09:57:56.039Z,31.13
2018-07-06T10:00:33.580Z,30.13
2018-07-06T10:03:02.197Z,30.70
2018-07-06T10:05:30.809Z,31.40
2018-07-06T10:07:59.133Z,30.20
2018-07-06T10:10:27.740Z,34.27
2018-07-06T10:12:56.389Z,33.23
2018-07-06T10:15:25.126Z,34.87
2018-07-06T10:17:53.731Z,36.40
2018-07-06T10:20:22.325Z,35.70
2018-07-06T10:22:50.889Z,35.37
2018-07-06T10:25:20.601Z,37.20
2018-07-06T10:27:54.270Z,34.10
2018-07-06T10:30:39.495Z,34.00
2018-07-06T10:33:09.011Z,32.73
2018-07-06T10:35:37.604Z,33.20
2018-07-06T10:38:07.513Z,34.90
2018-07-06T10:40:36.190Z,35.67
2018-07-06T10:43:05.006Z,33.27
2018-07-06T10:45:33.688Z,29.00
2018-07-06T10:48:02.218Z,33.80
2018-07-06T10:50:30.918Z,32.67
2018-07-06T10:53:00.654Z,34.23
2018-07-06T10:55:29.373Z,34.80
2018-07-06T10:57:57.984Z,32.53
2018-07-06T11:00:27.658Z,32.87
2018-07-06T11:02:56.211Z,32.83
2018-07-06T11:05:24.938Z,32.77
2018-07-06T11:07:53.553Z,27.77
2018-07-06T11:10:22.262Z,29.60
2018-07-06T11:12:50.980Z,32.07
2018-07-06T11:15:19.552Z,32.87
2018-07-06T11:17:49.297Z,31.87
2018-07-06T11:20:17.932Z,29.03
2018-07-06T11:22:46.563Z,30.13
2018-07-06T11:25:15.246Z,26.90
2018-07-06T11:27:43.821Z,22.40
2018-07-06T11:30:12.518Z,20.70
2018-07-06T11:32:46.807Z,19.50
2018-07-06T11:35:15.415Z,17.60
2018-07-06T11:37:44.042Z,15.20
2018-07-06T11:40:12.326Z,14.80
2018-07-06T11:42:40.647Z,11.07
2018-07-06T11:45:09.533Z,10.30
2018-07-06T11:47:38.182Z,8.90
2018-07-06T11:50:06.788Z,9.00
2018-07-06T11:52:35.364Z,7.60
2018-07-06T11:55:04.069Z,7.10
2018-07-06T11:57:32.826Z,7.87
2018-07-06T12:00:01.482Z,8.07
2018-07-06T12:02:30.140Z,7.90
2018-07-06T12:04:58.682Z,8.63
2018-07-06T12:07:27.299Z,9.50
2018-07-06T12:09:55.854Z,9.60
2018-07-06T12:12:24.464Z,10.97
2018-07-06T12:14:53.012Z,10.90
2018-07-06T12:17:21.597Z,11.10
2018-07-06T12:19:50.207Z,9.70
2018-07-06T12:22:18.792Z,10.70
2018-07-06T12:24:51.083Z,10.57
2018-07-06T12:27:21.871Z,13.00
2018-07-06T12:29:50.455Z,11.20
2018-07-06T12:32:18.804Z,12.40
2018-07-06T12:34:47.489Z,11.37
2018-07-06T12:37:16.137Z,12.40
2018-07-06T12:39:44.849Z,13.07
2018-07-06T12:42:13.591Z,16.90
2018-07-06T12:44:42.163Z,18.53
2018-07-06T12:47:10.916Z,18.50
2018-07-06T12:49:39.552Z,19.13
2018-07-06T12:52:08.148Z,17.73
2018-07-06T12:54:36.774Z,18.30
2018-07-06T12:57:05.555Z,18.40
2018-07-06T12:59:34.774Z,20.07
2018-07-06T13:02:03.115Z,22.00
2018-07-06T13:04:31.670Z,21.47
2018-07-06T13:07:00.280Z,23.97
2018-07-06T13:09:28.933Z,21.13
2018-07-06T13:11:57.631Z,20.50
2018-07-06T13:14:26.374Z,20.53
2018-07-06T13:16:55.057Z,18.67
2018-07-06T13:19:23.363Z,19.93
2018-07-06T13:21:52.072Z,20.87
2018-07-06T13:24:20.660Z,18.53
2018-07-06T13:26:49.243Z,19.40
2018-07-06T13:29:17.856Z,18.80
2018-07-06T13:31:46.515Z,18.10
2018-07-06T13:34:15.195Z,16.40
2018-07-06T13:36:44.923Z,17.70
2018-07-06T13:39:14.033Z,16.03
2018-07-06T13:41:42.657Z,17.10
2018-07-06T13:44:11.187Z,17.30
2018-07-06T13:46:39.752Z,16.83
2018-07-06T13:49:08.369Z,16.03
2018-07-06T13:51:37.057Z,19.93
2018-07-06T13:54:05.751Z,16.00
2018-07-06T13:56:34.336Z,15.23
2018-07-06T13:59:03.048Z,15.20
2018-07-06T14:01:31.715Z,13.60
2018-07-06T14:04:00.337Z,13.10
2018-07-06T14:06:28.985Z,14.90
2018-07-06T14:08:57.572Z,14.50
2018-07-06T14:11:26.161Z,16.10
2018-07-06T14:13:54.910Z,14.10
2018-07-06T14:16:23.538Z,14.30
2018-07-06T14:18:52.118Z,16.20
2018-07-06T14:21:20.498Z,15.90
2018-07-06T14:23:49.208Z,14.93
2018-07-06T14:26:18.000Z,14.17
2018-07-06T14:28:46.676Z,14.47
2018-07-06T14:31:15.235Z,14.60
2018-07-06T14:33:43.846Z,12.97
2018-07-06T14:36:12.546Z,15.53
2018-07-06T14:38:41.234Z,13.10
2018-07-06T14:41:10.121Z,16.10
2018-07-06T14:43:38.754Z,14.93
2018-07-06T14:46:07.298Z,11.87
2018-07-06T14:48:36.995Z,12.53
2018-07-06T14:51:05.757Z,10.50
2018-07-06T14:53:35.339Z,9.17
2018-07-06T14:56:03.954Z,8.73
2018-07-06T14:58:32.602Z,8.30
2018-07-06T15:01:02.072Z,7.47
2018-07-06T15:03:31.866Z,7.47
2018-07-06T15:06:00.503Z,7.60
2018-07-06T15:08:29.072Z,7.33
2018-07-06T15:10:58.743Z,7.20
2018-07-06T15:13:27.391Z,8.83
2018-07-06T15:15:56.104Z,8.70
2018-07-06T15:18:25.051Z,8.00
2018-07-06T15:20:53.582Z,4.13
2018-07-06T15:23:22.199Z,4.17
2018-07-06T15:25:50.807Z,4.20
2018-07-06T15:28:19.455Z,4.40
2018-07-06T15:30:48.070Z,3.90
2018-07-06T15:33:16.828Z,3.70
2018-07-06T15:35:45.470Z,3.50
2018-07-06T15:38:14.105Z,3.87
2018-07-06T15:40:42.781Z,3.37
2018-07-06T15:43:11.420Z,3.57
2018-07-06T15:45:39.730Z,3.13
2018-07-06T15:48:08.401Z,3.53
2018-07-06T15:50:36.998Z,3.13
2018-07-06T15:53:05.939Z,3.30
2018-07-06T15:55:34.566Z,3.33
2018-07-06T15:58:03.217Z,3.30
2018-07-06T16:00:31.862Z,3.60
2018-07-06T16:03:00.436Z,3.07
2018-07-06T16:05:29.296Z,3.00
2018-07-06T16:07:57.502Z,3.60
2018-07-06T16:10:26.203Z,3.50
2018-07-06T16:12:54.900Z,2.93
2018-07-06T16:15:24.584Z,3.00
2018-07-06T16:17:53.349Z,3.70
2018-07-06T16:20:21.997Z,3.93
2018-07-06T16:22:50.651Z,4.00
2018-07-06T16:25:19.457Z,3.57
2018-07-06T16:27:48.066Z,3.60
2018-07-06T16:30:16.650Z,5.83
2018-07-06T16:32:45.222Z,7.00
2018-07-06T16:35:13.893Z,7.57
2018-07-06T16:37:42.523Z,8.60
2018-07-06T16:40:11.181Z,9.27
2018-07-06T16:42:39.800Z,8.00
2018-07-06T16:45:08.536Z,6.20
2018-07-06T16:47:38.155Z,8.90
2018-07-06T16:50:06.918Z,8.00
2018-07-06T16:52:35.538Z,8.80
2018-07-06T16:55:03.912Z,7.30
2018-07-06T16:57:32.523Z,7.77
2018-07-06T17:00:01.087Z,9.03
2018-07-06T17:02:29.750Z,8.03
2018-07-06T17:04:58.422Z,9.97
2018-07-06T17:07:27.289Z,8.50
2018-07-06T17:09:56.093Z,6.93
2018-07-06T17:12:24.642Z,7.00
2018-07-06T17:14:53.377Z,7.80
2018-07-06T17:17:22.031Z,7.43
2018-07-06T17:19:50.685Z,8.50
2018-07-06T17:22:18.938Z,8.07
2018-07-06T17:24:48.692Z,7.77
2018-07-06T17:27:17.313Z,7.40
2018-07-06T17:29:46.073Z,6.67
2018-07-06T17:32:15.699Z,7.27
2018-07-06T17:34:44.530Z,6.57
2018-07-06T17:37:13.185Z,7.50
2018-07-06T17:39:41.875Z,6.70
2018-07-06T17:42:10.700Z,6.37
2018-07-06T17:44:45.061Z,5.77
2018-07-06T17:47:13.727Z,7.07
2018-07-06T17:49:43.380Z,7.07
2018-07-06T17:52:13.173Z,6.67
2018-07-06T17:54:42.013Z,6.00
2018-07-06T17:57:10.664Z,5.80
2018-07-06T17:59:39.422Z,6.50
2018-07-06T18:02:08.136Z,6.73
2018-07-06T18:04:36.838Z,5.87
2018-07-06T18:07:07.599Z,5.83
2018-07-06T18:09:36.205Z,4.73
2018-07-06T18:12:04.872Z,5.10
2018-07-06T18:14:33.660Z,4.67
2018-07-06T18:17:01.956Z,4.70
2018-07-06T18:19:30.669Z,5.63
2018-07-06T18:21:59.406Z,5.00
2018-07-06T18:24:28.021Z,4.90
2018-07-06T18:26:56.598Z,4.53
2018-07-06T18:29:25.237Z,4.40
2018-07-06T18:31:54.001Z,4.87
2018-07-06T18:34:23.739Z,4.80
2018-07-06T18:36:52.401Z,5.10
2018-07-06T18:39:21.109Z,5.33
2018-07-06T18:41:49.790Z,4.60
2018-07-06T18:44:19.431Z,4.87
2018-07-06T18:46:48.079Z,4.40
2018-07-06T18:49:16.659Z,4.10
2018-07-06T18:51:45.286Z,4.57
2018-07-06T18:54:13.936Z,4.30
2018-07-06T18:56:43.610Z,4.57
2018-07-06T18:59:12.196Z,4.17
2018-07-06T19:01:40.988Z,5.03
2018-07-06T19:04:09.618Z,5.03
2018-07-06T19:06:38.330Z,5.03
2018-07-06T19:09:07.328Z,5.13
2018-07-06T19:11:36.995Z,4.77
2018-07-06T19:14:05.617Z,4.43
2018-07-06T19:16:34.306Z,5.10
2018-07-06T19:19:02.963Z,5.67
2018-07-06T19:21:31.643Z,6.17
2018-07-06T19:24:00.707Z,5.43
2018-07-06T19:26:29.410Z,5.10
2018-07-06T19:29:04.291Z,5.30
2018-07-06T19:31:32.942Z,5.80
2018-07-06T19:34:01.540Z,5.57
2018-07-06T19:36:30.206Z,6.40
2018-07-06T19:38:58.798Z,9.40
2018-07-06T19:41:32.231Z,5.70
2018-07-06T19:44:00.835Z,5.53
2018-07-06T19:46:29.546Z,5.87
2018-07-06T19:48:58.164Z,7.10
2018-07-06T19:51:28.910Z,6.03
2018-07-06T19:53:59.624Z,6.20
2018-07-06T19:56:30.333Z,6.37
2018-07-06T19:58:58.915Z,5.93
2018-07-06T20:01:27.605Z,6.43
2018-07-06T20:03:56.288Z,7.50
2018-07-06T20:06:24.926Z,7.20
2018-07-06T20:08:53.506Z,7.17
2018-07-06T20:11:22.147Z,8.37
2018-07-06T20:13:50.796Z,7.70
2018-07-06T20:16:19.505Z,7.70
2018-07-06T20:18:48.153Z,8.37
2018-07-06T20:21:16.840Z,12.70
2018-07-06T20:23:45.515Z,8.10
2018-07-06T20:26:14.129Z,8.33
2018-07-06T20:28:42.810Z,8.43
2018-07-06T20:31:11.446Z,8.20
2018-07-06T20:33:40.040Z,7.93
2018-07-06T20:36:08.366Z,9.00
2018-07-06T20:38:37.074Z,9.07
2018-07-06T20:41:05.678Z,8.83
2018-07-06T20:43:34.304Z,8.80
2018-07-06T20:46:02.916Z,9.73
2018-07-06T20:48:31.613Z,9.50
2018-07-06T20:51:01.336Z,10.20
2018-07-06T20:53:30.037Z,10.43
2018-07-06T20:55:58.674Z,10.80
2018-07-06T20:58:27.365Z,9.87
2018-07-06T21:00:56.062Z,10.27
2018-07-06T21:03:24.810Z,10.10
2018-07-06T21:05:53.441Z,9.47
2018-07-06T21:08:22.073Z,12.03
2018-07-06T21:10:50.690Z,11.50
2018-07-06T21:13:19.348Z,12.70
2018-07-06T21:15:47.918Z,12.00
2018-07-06T21:18:16.673Z,11.70
2018-07-06T21:20:45.318Z,12.87
2018-07-06T21:23:13.984Z,13.37
2018-07-06T21:25:42.949Z,12.03
2018-07-06T21:28:11.681Z,12.83
2018-07-06T21:30:40.468Z,13.87
2018-07-06T21:33:09.074Z,13.80
2018-07-06T21:35:37.745Z,12.83
2018-07-06T21:38:06.431Z,14.13
2018-07-06T21:40:35.020Z,12.27
2018-07-06T21:43:03.642Z,13.97
2018-07-06T21:45:32.286Z,13.27
2018-07-06T21:48:01.045Z,12.47
2018-07-06T21:50:29.680Z,13.73
2018-07-06T21:52:58.226Z,13.90
2018-07-06T21:55:26.937Z,14.60
2018-07-06T21:57:55.551Z,13.17
2018-07-06T22:00:33.701Z,13.70
2018-07-06T22:03:02.347Z,14.03
2018-07-06T22:05:31.030Z,13.80
2018-07-06T22:07:59.702Z,14.73
2018-07-06T22:10:28.339Z,13.67
2018-07-06T22:12:56.973Z,15.23
2018-07-06T22:15:29.804Z,14.33
2018-07-06T22:17:58.758Z,14.93
2018-07-06T22:20:27.313Z,15.70
2018-07-06T22:22:55.985Z,15.07
2018-07-06T22:25:24.580Z,16.30
2018-07-06T22:27:53.315Z,16.77
2018-07-06T22:30:21.834Z,17.20
2018-07-06T22:32:50.459Z,16.83
2018-07-06T22:35:19.050Z,17.80
2018-07-06T22:37:47.615Z,19.80
2018-07-06T22:40:16.834Z,20.50
2018-07-06T22:42:45.518Z,22.20
2018-07-06T22:45:14.424Z,20.60
2018-07-06T22:47:42.978Z,20.83
2018-07-06T22:50:12.019Z,19.90
2018-07-06T22:52:40.586Z,20.13
2018-07-06T22:55:08.886Z,18.83
2018-07-06T22:57:37.543Z,19.30
2018-07-06T23:00:06.257Z,22.90
2018-07-06T23:02:35.381Z,24.37
2018-07-06T23:05:10.861Z,26.10
2018-07-06T23:07:39.457Z,27.27
2018-07-06T23:10:07.754Z,26.93
2018-07-06T23:12:36.923Z,28.80
2018-07-06T23:15:05.857Z,28.03
2018-07-06T23:17:34.584Z,26.97
2018-07-06T23:20:03.283Z,26.80
2018-07-06T23:22:42.983Z,24.40
2018-07-06T23:25:11.776Z,27.80
2018-07-06T23:27:40.362Z,30.63
2018-07-06T23:30:09.032Z,29.13
2018-07-06T23:32:37.672Z,29.10
2018-07-06T23:35:06.266Z,34.50
2018-07-06T23:37:34.868Z,36.27
2018-07-06T23:40:03.570Z,35.27
2018-07-06T23:42:32.314Z,35.80
2018-07-06T23:45:01.015Z,37.40
2018-07-06T23:47:29.574Z,33.07
2018-07-06T23:49:58.143Z,34.83
2018-07-06T23:52:26.718Z,33.60
2018-07-06T23:54:55.411Z,34.80
2018-07-06T23:57:23.999Z,32.50
2018-07-06T23:59:52.601Z,33.47
